sensor_id;sensor_type;location;lat;lon;timestamp;P1;durP1;ratioP1;P2;durP2;ratioP2
3849;SDS011;1940;51.052;13.678;2023-07-20T00:01:05;12.23;;;4.30;;
3849;SDS011;1940;51.052;13.678;2023-07-20T00:03:30;5.47;;;4.40;;
3849;SDS011;1940;51.052;13.678;2023-07-20T00:05:56;7.10;;;4.30;;
3849;SDS011;1940;51.052;13.678;2023-07-20T00:08:21;6.40;;;4.10;;
3849;SDS011;1940;51.052;13.678;2023-07-20T00:10:47;5.70;;;4.10;;
3849;SDS011;1940;51.052;13.678;2023-07-20T00:13:13;9.67;;;3.60;;
3849;SDS011;1940;51.052;13.678;2023-07-20T00:15:40;6.90;;;4.20;;
3849;SDS011;1940;51.052;13.678;2023-07-20T00:18:06;8.23;;;4.20;;
3849;SDS011;1940;51.052;13.678;2023-07-20T00:20:32;8.40;;;4.13;;
3849;SDS011;1940;51.052;13.678;2023-07-20T00:22:58;5.17;;;3.77;;
3849;SDS011;1940;51.052;13.678;2023-07-20T00:25:24;6.20;;;3.90;;
3849;SDS011;1940;51.052;13.678;2023-07-20T00:27:50;8.13;;;4.10;;
3849;SDS011;1940;51.052;13.678;2023-07-20T00:30:15;5.40;;;3.70;;
3849;SDS011;1940;51.052;13.678;2023-07-20T00:32:44;8.90;;;4.23;;
3849;SDS011;1940;51.052;13.678;2023-07-20T00:35:10;7.60;;;3.60;;
3849;SDS011;1940;51.052;13.678;2023-07-20T00:37:36;6.63;;;3.33;;
3849;SDS011;1940;51.052;13.678;2023-07-20T00:40:02;8.07;;;3.70;;
3849;SDS011;1940;51.052;13.678;2023-07-20T00:42:29;9.10;;;3.50;;
3849;SDS011;1940;51.052;13.678;2023-07-20T00:44:55;4.90;;;3.20;;
3849;SDS011;1940;51.052;13.678;2023-07-20T00:47:20;3.60;;;2.70;;
3849;SDS011;1940;51.052;13.678;2023-07-20T00:49:46;5.07;;;3.07;;
3849;SDS011;1940;51.052;13.678;2023-07-20T00:52:12;7.73;;;2.93;;
3849;SDS011;1940;51.052;13.678;2023-07-20T00:54:42;3.10;;;2.10;;
3849;SDS011;1940;51.052;13.678;2023-07-20T00:57:08;7.57;;;2.17;;
3849;SDS011;1940;51.052;13.678;2023-07-20T00:59:34;3.17;;;2.57;;
3849;SDS011;1940;51.052;13.678;2023-07-20T01:02:01;8.10;;;2.60;;
3849;SDS011;1940;51.052;13.678;2023-07-20T01:04:27;2.73;;;1.67;;
3849;SDS011;1940;51.052;13.678;2023-07-20T01:07:06;5.27;;;2.30;;
3849;SDS011;1940;51.052;13.678;2023-07-20T01:09:45;6.27;;;2.10;;
3849;SDS011;1940;51.052;13.678;2023-07-20T01:12:31;2.13;;;1.57;;
3849;SDS011;1940;51.052;13.678;2023-07-20T01:15:04;4.77;;;2.00;;
3849;SDS011;1940;51.052;13.678;2023-07-20T01:17:32;3.43;;;2.17;;
3849;SDS011;1940;51.052;13.678;2023-07-20T01:19:58;5.77;;;2.20;;
3849;SDS011;1940;51.052;13.678;2023-07-20T01:25:21;3.83;;;2.20;;
3849;SDS011;1940;51.052;13.678;2023-07-20T01:33:47;5.87;;;3.00;;
3849;SDS011;1940;51.052;13.678;2023-07-20T01:36:14;6.70;;;3.57;;
3849;SDS011;1940;51.052;13.678;2023-07-20T01:38:42;6.37;;;3.20;;
3849;SDS011;1940;51.052;13.678;2023-07-20T01:41:08;15.90;;;3.30;;
3849;SDS011;1940;51.052;13.678;2023-07-20T01:43:34;7.77;;;3.70;;
3849;SDS011;1940;51.052;13.678;2023-07-20T01:45:59;7.90;;;3.70;;
3849;SDS011;1940;51.052;13.678;2023-07-20T01:48:25;6.97;;;3.93;;
3849;SDS011;1940;51.052;13.678;2023-07-20T01:50:51;10.00;;;4.00;;
3849;SDS011;1940;51.052;13.678;2023-07-20T01:53:16;8.03;;;4.07;;
3849;SDS011;1940;51.052;13.678;2023-07-20T01:55:42;12.50;;;4.70;;
3849;SDS011;1940;51.052;13.678;2023-07-20T01:58:08;12.30;;;4.60;;
3849;SDS011;1940;51.052;13.678;2023-07-20T02:00:33;13.63;;;4.87;;
3849;SDS011;1940;51.052;13.678;2023-07-20T02:02:59;12.50;;;5.90;;
3849;SDS011;1940;51.052;13.678;2023-07-20T02:05:24;9.17;;;5.47;;
3849;SDS011;1940;51.052;13.678;2023-07-20T02:07:50;9.37;;;5.07;;
3849;SDS011;1940;51.052;13.678;2023-07-20T02:10:16;12.17;;;5.60;;
3849;SDS011;1940;51.052;13.678;2023-07-20T02:12:42;9.90;;;4.80;;
3849;SDS011;1940;51.052;13.678;2023-07-20T02:15:07;20.27;;;5.40;;
3849;SDS011;1940;51.052;13.678;2023-07-20T02:17:33;14.23;;;5.73;;
3849;SDS011;1940;51.052;13.678;2023-07-20T02:19:59;12.83;;;6.63;;
3849;SDS011;1940;51.052;13.678;2023-07-20T02:22:24;11.47;;;5.50;;
3849;SDS011;1940;51.052;13.678;2023-07-20T02:24:50;13.70;;;6.57;;
3849;SDS011;1940;51.052;13.678;2023-07-20T02:27:16;14.80;;;7.00;;
3849;SDS011;1940;51.052;13.678;2023-07-20T02:29:41;11.70;;;7.20;;
3849;SDS011;1940;51.052;13.678;2023-07-20T02:32:07;16.37;;;6.60;;
3849;SDS011;1940;51.052;13.678;2023-07-20T02:34:34;11.30;;;6.63;;
3849;SDS011;1940;51.052;13.678;2023-07-20T02:37:00;15.10;;;7.40;;
3849;SDS011;1940;51.052;13.678;2023-07-20T02:39:29;13.37;;;6.70;;
3849;SDS011;1940;51.052;13.678;2023-07-20T02:41:54;13.50;;;7.20;;
3849;SDS011;1940;51.052;13.678;2023-07-20T02:44:20;14.17;;;6.87;;
3849;SDS011;1940;51.052;13.678;2023-07-20T02:46:46;8.60;;;6.00;;
3849;SDS011;1940;51.052;13.678;2023-07-20T02:49:11;12.03;;;7.00;;
3849;SDS011;1940;51.052;13.678;2023-07-20T02:51:37;13.93;;;7.00;;
3849;SDS011;1940;51.052;13.678;2023-07-20T02:54:02;15.30;;;7.83;;
3849;SDS011;1940;51.052;13.678;2023-07-20T02:56:28;9.80;;;6.53;;
3849;SDS011;1940;51.052;13.678;2023-07-20T02:58:54;14.10;;;6.90;;
3849;SDS011;1940;51.052;13.678;2023-07-20T03:01:19;27.07;;;7.53;;
3849;SDS011;1940;51.052;13.678;2023-07-20T03:03:45;15.90;;;7.70;;
3849;SDS011;1940;51.052;13.678;2023-07-20T03:06:15;11.30;;;6.10;;
3849;SDS011;1940;51.052;13.678;2023-07-20T03:08:42;16.90;;;7.23;;
3849;SDS011;1940;51.052;13.678;2023-07-20T03:11:12;8.97;;;6.67;;
3849;SDS011;1940;51.052;13.678;2023-07-20T03:13:39;10.60;;;7.37;;
3849;SDS011;1940;51.052;13.678;2023-07-20T03:16:04;11.17;;;6.80;;
3849;SDS011;1940;51.052;13.678;2023-07-20T03:18:30;18.90;;;7.17;;
3849;SDS011;1940;51.052;13.678;2023-07-20T03:20:56;16.30;;;8.20;;
3849;SDS011;1940;51.052;13.678;2023-07-20T03:23:21;12.53;;;6.77;;
3849;SDS011;1940;51.052;13.678;2023-07-20T03:25:47;11.53;;;6.50;;
3849;SDS011;1940;51.052;13.678;2023-07-20T03:28:12;14.57;;;6.80;;
3849;SDS011;1940;51.052;13.678;2023-07-20T03:30:38;12.80;;;6.17;;
3849;SDS011;1940;51.052;13.678;2023-07-20T03:33:03;14.57;;;6.50;;
3849;SDS011;1940;51.052;13.678;2023-07-20T03:35:29;17.13;;;6.90;;
3849;SDS011;1940;51.052;13.678;2023-07-20T03:37:56;10.23;;;6.13;;
3849;SDS011;1940;51.052;13.678;2023-07-20T03:40:22;10.50;;;6.00;;
3849;SDS011;1940;51.052;13.678;2023-07-20T03:42:47;9.93;;;6.00;;
3849;SDS011;1940;51.052;13.678;2023-07-20T03:45:13;8.70;;;5.93;;
3849;SDS011;1940;51.052;13.678;2023-07-20T03:47:38;12.00;;;5.97;;
3849;SDS011;1940;51.052;13.678;2023-07-20T03:50:04;10.70;;;6.53;;
3849;SDS011;1940;51.052;13.678;2023-07-20T03:52:30;9.80;;;5.80;;
3849;SDS011;1940;51.052;13.678;2023-07-20T03:54:56;12.83;;;5.67;;
3849;SDS011;1940;51.052;13.678;2023-07-20T03:57:21;16.80;;;6.87;;
3849;SDS011;1940;51.052;13.678;2023-07-20T03:59:47;9.00;;;5.70;;
3849;SDS011;1940;51.052;13.678;2023-07-20T04:02:13;10.10;;;5.67;;
3849;SDS011;1940;51.052;13.678;2023-07-20T04:04:39;11.97;;;5.80;;
3849;SDS011;1940;51.052;13.678;2023-07-20T04:07:04;13.13;;;5.60;;
3849;SDS011;1940;51.052;13.678;2023-07-20T04:09:31;11.03;;;5.77;;
3849;SDS011;1940;51.052;13.678;2023-07-20T04:11:57;8.60;;;5.63;;
3849;SDS011;1940;51.052;13.678;2023-07-20T04:14:22;9.90;;;6.10;;
3849;SDS011;1940;51.052;13.678;2023-07-20T04:16:48;8.60;;;5.87;;
3849;SDS011;1940;51.052;13.678;2023-07-20T04:19:13;11.53;;;5.40;;
3849;SDS011;1940;51.052;13.678;2023-07-20T04:21:40;9.83;;;5.10;;
3849;SDS011;1940;51.052;13.678;2023-07-20T04:24:06;8.10;;;5.63;;
3849;SDS011;1940;51.052;13.678;2023-07-20T04:26:31;11.53;;;5.80;;
3849;SDS011;1940;51.052;13.678;2023-07-20T04:28:57;15.70;;;5.87;;
3849;SDS011;1940;51.052;13.678;2023-07-20T04:31:24;14.20;;;6.50;;
3849;SDS011;1940;51.052;13.678;2023-07-20T04:33:50;14.03;;;7.00;;
3849;SDS011;1940;51.052;13.678;2023-07-20T04:36:15;16.03;;;6.37;;
3849;SDS011;1940;51.052;13.678;2023-07-20T04:38:44;11.23;;;7.50;;
3849;SDS011;1940;51.052;13.678;2023-07-20T04:41:12;14.43;;;7.50;;
3849;SDS011;1940;51.052;13.678;2023-07-20T04:43:41;11.70;;;7.50;;
3849;SDS011;1940;51.052;13.678;2023-07-20T04:46:08;12.90;;;7.40;;
3849;SDS011;1940;51.052;13.678;2023-07-20T04:48:34;12.50;;;7.90;;
3849;SDS011;1940;51.052;13.678;2023-07-20T04:51:00;14.57;;;7.93;;
3849;SDS011;1940;51.052;13.678;2023-07-20T04:53:25;11.63;;;7.67;;
3849;SDS011;1940;51.052;13.678;2023-07-20T04:55:51;19.67;;;7.73;;
3849;SDS011;1940;51.052;13.678;2023-07-20T04:58:17;11.83;;;6.63;;
3849;SDS011;1940;51.052;13.678;2023-07-20T05:00:43;16.60;;;6.80;;
3849;SDS011;1940;51.052;13.678;2023-07-20T05:03:09;13.73;;;6.80;;
3849;SDS011;1940;51.052;13.678;2023-07-20T05:05:34;13.67;;;6.60;;
3849;SDS011;1940;51.052;13.678;2023-07-20T05:08:00;10.60;;;5.97;;
3849;SDS011;1940;51.052;13.678;2023-07-20T05:10:25;16.50;;;6.17;;
3849;SDS011;1940;51.052;13.678;2023-07-20T05:12:51;14.83;;;5.53;;
3849;SDS011;1940;51.052;13.678;2023-07-20T05:15:17;8.60;;;5.30;;
3849;SDS011;1940;51.052;13.678;2023-07-20T05:17:42;10.43;;;5.43;;
3849;SDS011;1940;51.052;13.678;2023-07-20T05:20:08;11.23;;;5.67;;
3849;SDS011;1940;51.052;13.678;2023-07-20T05:22:37;8.13;;;4.70;;
3849;SDS011;1940;51.052;13.678;2023-07-20T05:25:09;6.93;;;4.67;;
3849;SDS011;1940;51.052;13.678;2023-07-20T05:27:36;10.50;;;5.10;;
3849;SDS011;1940;51.052;13.678;2023-07-20T05:30:03;8.33;;;5.23;;
3849;SDS011;1940;51.052;13.678;2023-07-20T05:32:29;7.53;;;4.90;;
3849;SDS011;1940;51.052;13.678;2023-07-20T05:34:54;10.43;;;4.77;;
3849;SDS011;1940;51.052;13.678;2023-07-20T05:37:20;9.70;;;4.50;;
3849;SDS011;1940;51.052;13.678;2023-07-20T05:39:46;14.40;;;4.67;;
3849;SDS011;1940;51.052;13.678;2023-07-20T05:42:11;8.40;;;3.90;;
3849;SDS011;1940;51.052;13.678;2023-07-20T05:44:37;8.50;;;4.77;;
3849;SDS011;1940;51.052;13.678;2023-07-20T05:47:03;8.33;;;4.73;;
3849;SDS011;1940;51.052;13.678;2023-07-20T05:49:28;9.80;;;4.73;;
3849;SDS011;1940;51.052;13.678;2023-07-20T05:51:54;6.93;;;4.60;;
3849;SDS011;1940;51.052;13.678;2023-07-20T05:54:21;11.07;;;4.53;;
3849;SDS011;1940;51.052;13.678;2023-07-20T05:56:49;7.80;;;4.80;;
3849;SDS011;1940;51.052;13.678;2023-07-20T05:59:14;8.10;;;4.80;;
3849;SDS011;1940;51.052;13.678;2023-07-20T06:01:40;13.00;;;5.17;;
3849;SDS011;1940;51.052;13.678;2023-07-20T06:04:06;11.87;;;5.87;;
3849;SDS011;1940;51.052;13.678;2023-07-20T06:06:32;9.30;;;5.43;;
3849;SDS011;1940;51.052;13.678;2023-07-20T06:08:57;10.23;;;5.57;;
3849;SDS011;1940;51.052;13.678;2023-07-20T06:11:23;11.17;;;6.80;;
3849;SDS011;1940;51.052;13.678;2023-07-20T06:13:48;8.37;;;6.40;;
3849;SDS011;1940;51.052;13.678;2023-07-20T06:16:14;9.40;;;6.77;;
3849;SDS011;1940;51.052;13.678;2023-07-20T06:18:39;9.60;;;6.60;;
3849;SDS011;1940;51.052;13.678;2023-07-20T06:21:05;7.50;;;6.20;;
3849;SDS011;1940;51.052;13.678;2023-07-20T06:23:30;14.83;;;6.47;;
3849;SDS011;1940;51.052;13.678;2023-07-20T06:25:56;9.93;;;6.20;;
3849;SDS011;1940;51.052;13.678;2023-07-20T06:28:21;6.70;;;5.60;;
3849;SDS011;1940;51.052;13.678;2023-07-20T06:30:47;7.00;;;5.03;;
3849;SDS011;1940;51.052;13.678;2023-07-20T06:33:12;9.10;;;5.30;;
3849;SDS011;1940;51.052;13.678;2023-07-20T06:35:40;11.83;;;5.50;;
3849;SDS011;1940;51.052;13.678;2023-07-20T06:38:07;9.80;;;6.00;;
3849;SDS011;1940;51.052;13.678;2023-07-20T06:40:33;10.63;;;5.90;;
3849;SDS011;1940;51.052;13.678;2023-07-20T06:42:58;19.43;;;6.67;;
3849;SDS011;1940;51.052;13.678;2023-07-20T06:45:24;10.40;;;6.70;;
3849;SDS011;1940;51.052;13.678;2023-07-20T06:47:50;14.60;;;7.20;;
3849;SDS011;1940;51.052;13.678;2023-07-20T06:50:15;14.63;;;7.20;;
3849;SDS011;1940;51.052;13.678;2023-07-20T06:52:41;8.00;;;6.20;;
3849;SDS011;1940;51.052;13.678;2023-07-20T06:55:07;8.40;;;6.37;;
3849;SDS011;1940;51.052;13.678;2023-07-20T06:57:33;11.73;;;7.13;;
3849;SDS011;1940;51.052;13.678;2023-07-20T06:59:58;12.63;;;6.83;;
3849;SDS011;1940;51.052;13.678;2023-07-20T07:02:23;8.97;;;6.60;;
3849;SDS011;1940;51.052;13.678;2023-07-20T07:04:49;8.50;;;6.30;;
3849;SDS011;1940;51.052;13.678;2023-07-20T07:07:15;13.93;;;6.30;;
3849;SDS011;1940;51.052;13.678;2023-07-20T07:09:41;10.13;;;6.17;;
3849;SDS011;1940;51.052;13.678;2023-07-20T07:12:07;7.60;;;5.87;;
3849;SDS011;1940;51.052;13.678;2023-07-20T07:14:33;6.40;;;5.40;;
3849;SDS011;1940;51.052;13.678;2023-07-20T07:16:59;7.60;;;5.87;;
3849;SDS011;1940;51.052;13.678;2023-07-20T07:19:25;6.90;;;5.50;;
3849;SDS011;1940;51.052;13.678;2023-07-20T07:21:50;6.97;;;5.40;;
3849;SDS011;1940;51.052;13.678;2023-07-20T07:24:16;9.07;;;5.47;;
3849;SDS011;1940;51.052;13.678;2023-07-20T07:26:42;6.07;;;5.07;;
3849;SDS011;1940;51.052;13.678;2023-07-20T07:29:07;5.43;;;4.80;;
3849;SDS011;1940;51.052;13.678;2023-07-20T07:31:33;5.20;;;4.17;;
3849;SDS011;1940;51.052;13.678;2023-07-20T07:34:01;5.70;;;4.00;;
3849;SDS011;1940;51.052;13.678;2023-07-20T07:36:27;6.13;;;4.23;;
3849;SDS011;1940;51.052;13.678;2023-07-20T07:38:52;13.03;;;5.57;;
3849;SDS011;1940;51.052;13.678;2023-07-20T07:41:18;6.53;;;4.23;;
3849;SDS011;1940;51.052;13.678;2023-07-20T07:43:43;6.20;;;4.03;;
3849;SDS011;1940;51.052;13.678;2023-07-20T07:46:09;5.53;;;3.83;;
3849;SDS011;1940;51.052;13.678;2023-07-20T07:48:34;5.03;;;3.40;;
3849;SDS011;1940;51.052;13.678;2023-07-20T07:51:00;4.30;;;3.60;;
3849;SDS011;1940;51.052;13.678;2023-07-20T07:53:25;3.83;;;3.43;;
3849;SDS011;1940;51.052;13.678;2023-07-20T07:55:51;5.23;;;3.80;;
3849;SDS011;1940;51.052;13.678;2023-07-20T07:58:17;6.77;;;3.53;;
3849;SDS011;1940;51.052;13.678;2023-07-20T08:00:42;4.40;;;3.97;;
3849;SDS011;1940;51.052;13.678;2023-07-20T08:03:09;6.03;;;3.60;;
3849;SDS011;1940;51.052;13.678;2023-07-20T08:05:35;4.47;;;3.93;;
3849;SDS011;1940;51.052;13.678;2023-07-20T08:08:04;4.70;;;4.20;;
3849;SDS011;1940;51.052;13.678;2023-07-20T08:10:30;8.37;;;4.30;;
3849;SDS011;1940;51.052;13.678;2023-07-20T08:12:56;4.57;;;4.03;;
3849;SDS011;1940;51.052;13.678;2023-07-20T08:15:22;5.63;;;3.80;;
3849;SDS011;1940;51.052;13.678;2023-07-20T08:17:47;9.30;;;4.23;;
3849;SDS011;1940;51.052;13.678;2023-07-20T08:20:14;6.23;;;4.80;;
3849;SDS011;1940;51.052;13.678;2023-07-20T08:22:41;11.27;;;5.13;;
3849;SDS011;1940;51.052;13.678;2023-07-20T08:25:07;6.90;;;5.17;;
3849;SDS011;1940;51.052;13.678;2023-07-20T08:27:33;6.63;;;5.17;;
3849;SDS011;1940;51.052;13.678;2023-07-20T08:29:59;9.10;;;5.73;;
3849;SDS011;1940;51.052;13.678;2023-07-20T08:32:25;6.80;;;5.17;;
3849;SDS011;1940;51.052;13.678;2023-07-20T08:34:51;7.93;;;4.97;;
3849;SDS011;1940;51.052;13.678;2023-07-20T08:37:16;4.23;;;3.63;;
3849;SDS011;1940;51.052;13.678;2023-07-20T08:39:42;8.80;;;3.80;;
3849;SDS011;1940;51.052;13.678;2023-07-20T08:42:07;3.77;;;3.23;;
3849;SDS011;1940;51.052;13.678;2023-07-20T08:44:35;4.07;;;3.60;;
3849;SDS011;1940;51.052;13.678;2023-07-20T08:47:03;6.13;;;3.03;;
3849;SDS011;1940;51.052;13.678;2023-07-20T08:49:33;4.37;;;2.50;;
3849;SDS011;1940;51.052;13.678;2023-07-20T08:52:00;3.00;;;2.80;;
3849;SDS011;1940;51.052;13.678;2023-07-20T08:54:29;3.93;;;2.97;;
3849;SDS011;1940;51.052;13.678;2023-07-20T08:57:02;4.23;;;2.60;;
3849;SDS011;1940;51.052;13.678;2023-07-20T08:59:29;3.40;;;3.10;;
3849;SDS011;1940;51.052;13.678;2023-07-20T09:01:56;3.60;;;2.87;;
3849;SDS011;1940;51.052;13.678;2023-07-20T09:04:23;4.60;;;3.03;;
3849;SDS011;1940;51.052;13.678;2023-07-20T09:06:49;5.10;;;3.50;;
3849;SDS011;1940;51.052;13.678;2023-07-20T09:09:15;3.53;;;3.23;;
3849;SDS011;1940;51.052;13.678;2023-07-20T09:11:41;3.93;;;3.50;;
3849;SDS011;1940;51.052;13.678;2023-07-20T09:14:08;3.93;;;3.53;;
3849;SDS011;1940;51.052;13.678;2023-07-20T09:16:55;4.00;;;3.30;;
3849;SDS011;1940;51.052;13.678;2023-07-20T09:19:21;3.73;;;3.30;;
3849;SDS011;1940;51.052;13.678;2023-07-20T09:21:50;4.50;;;3.67;;
3849;SDS011;1940;51.052;13.678;2023-07-20T09:24:17;3.67;;;3.37;;
3849;SDS011;1940;51.052;13.678;2023-07-20T09:26:44;4.90;;;4.00;;
3849;SDS011;1940;51.052;13.678;2023-07-20T09:29:13;4.73;;;3.70;;
3849;SDS011;1940;51.052;13.678;2023-07-20T09:31:39;3.97;;;3.30;;
3849;SDS011;1940;51.052;13.678;2023-07-20T09:34:05;7.00;;;3.63;;
3849;SDS011;1940;51.052;13.678;2023-07-20T09:36:35;4.00;;;3.30;;
3849;SDS011;1940;51.052;13.678;2023-07-20T09:39:01;4.27;;;3.67;;
3849;SDS011;1940;51.052;13.678;2023-07-20T09:41:28;4.07;;;3.53;;
3849;SDS011;1940;51.052;13.678;2023-07-20T09:43:54;4.93;;;3.80;;
3849;SDS011;1940;51.052;13.678;2023-07-20T09:46:20;5.30;;;3.87;;
3849;SDS011;1940;51.052;13.678;2023-07-20T09:48:51;4.33;;;3.93;;
3849;SDS011;1940;51.052;13.678;2023-07-20T09:51:18;8.73;;;4.17;;
3849;SDS011;1940;51.052;13.678;2023-07-20T09:53:46;4.57;;;4.10;;
3849;SDS011;1940;51.052;13.678;2023-07-20T09:56:13;4.73;;;4.30;;
3849;SDS011;1940;51.052;13.678;2023-07-20T09:58:41;4.80;;;4.30;;
3849;SDS011;1940;51.052;13.678;2023-07-20T10:01:08;4.30;;;3.90;;
3849;SDS011;1940;51.052;13.678;2023-07-20T10:03:34;6.50;;;5.17;;
3849;SDS011;1940;51.052;13.678;2023-07-20T10:06:05;7.20;;;6.40;;
3849;SDS011;1940;51.052;13.678;2023-07-20T10:08:34;8.23;;;7.40;;
3849;SDS011;1940;51.052;13.678;2023-07-20T10:11:04;12.50;;;7.60;;
3849;SDS011;1940;51.052;13.678;2023-07-20T10:13:32;10.23;;;8.00;;
3849;SDS011;1940;51.052;13.678;2023-07-20T10:16:03;11.33;;;8.70;;
3849;SDS011;1940;51.052;13.678;2023-07-20T10:18:38;11.83;;;8.80;;
3849;SDS011;1940;51.052;13.678;2023-07-20T10:21:10;15.00;;;9.10;;
3849;SDS011;1940;51.052;13.678;2023-07-20T10:23:35;10.10;;;8.00;;
3849;SDS011;1940;51.052;13.678;2023-07-20T10:26:02;9.87;;;8.00;;
3849;SDS011;1940;51.052;13.678;2023-07-20T10:28:28;14.63;;;9.60;;
3849;SDS011;1940;51.052;13.678;2023-07-20T10:30:53;9.40;;;7.90;;
3849;SDS011;1940;51.052;13.678;2023-07-20T10:33:19;9.23;;;7.60;;
3849;SDS011;1940;51.052;13.678;2023-07-20T10:38:38;6.00;;;5.40;;
3849;SDS011;1940;51.052;13.678;2023-07-20T10:41:15;5.73;;;4.70;;
3849;SDS011;1940;51.052;13.678;2023-07-20T10:43:45;4.70;;;4.00;;
3849;SDS011;1940;51.052;13.678;2023-07-20T10:46:11;5.70;;;4.60;;
3849;SDS011;1940;51.052;13.678;2023-07-20T10:48:58;4.93;;;4.27;;
3849;SDS011;1940;51.052;13.678;2023-07-20T10:51:27;4.80;;;4.33;;
3849;SDS011;1940;51.052;13.678;2023-07-20T10:53:56;4.83;;;4.33;;
3849;SDS011;1940;51.052;13.678;2023-07-20T10:56:25;5.23;;;4.30;;
3849;SDS011;1940;51.052;13.678;2023-07-20T10:58:57;5.23;;;4.70;;
3849;SDS011;1940;51.052;13.678;2023-07-20T11:01:28;6.20;;;5.10;;
3849;SDS011;1940;51.052;13.678;2023-07-20T11:03:57;7.20;;;5.60;;
3849;SDS011;1940;51.052;13.678;2023-07-20T11:08:56;7.73;;;5.63;;
3849;SDS011;1940;51.052;13.678;2023-07-20T11:11:41;9.37;;;5.57;;
3849;SDS011;1940;51.052;13.678;2023-07-20T11:14:09;7.70;;;5.27;;
3849;SDS011;1940;51.052;13.678;2023-07-20T11:19:04;8.40;;;7.03;;
3849;SDS011;1940;51.052;13.678;2023-07-20T11:21:35;7.40;;;6.20;;
3849;SDS011;1940;51.052;13.678;2023-07-20T11:24:03;8.43;;;7.00;;
3849;SDS011;1940;51.052;13.678;2023-07-20T11:26:30;9.00;;;6.97;;
3849;SDS011;1940;51.052;13.678;2023-07-20T11:28:55;6.83;;;6.13;;
3849;SDS011;1940;51.052;13.678;2023-07-20T11:31:21;6.63;;;5.97;;
3849;SDS011;1940;51.052;13.678;2023-07-20T11:33:46;7.90;;;6.30;;
3849;SDS011;1940;51.052;13.678;2023-07-20T11:36:12;9.90;;;5.93;;
3849;SDS011;1940;51.052;13.678;2023-07-20T11:38:40;6.90;;;6.20;;
3849;SDS011;1940;51.052;13.678;2023-07-20T11:41:07;6.17;;;5.57;;
3849;SDS011;1940;51.052;13.678;2023-07-20T11:43:33;6.60;;;5.90;;
3849;SDS011;1940;51.052;13.678;2023-07-20T11:45:59;6.37;;;5.73;;
3849;SDS011;1940;51.052;13.678;2023-07-20T11:48:25;7.77;;;5.60;;
3849;SDS011;1940;51.052;13.678;2023-07-20T11:50:50;6.30;;;5.37;;
3849;SDS011;1940;51.052;13.678;2023-07-20T11:53:16;6.00;;;5.37;;
3849;SDS011;1940;51.052;13.678;2023-07-20T11:55:42;5.23;;;4.73;;
3849;SDS011;1940;51.052;13.678;2023-07-20T11:58:08;5.53;;;5.00;;
3849;SDS011;1940;51.052;13.678;2023-07-20T12:00:35;5.23;;;3.93;;
3849;SDS011;1940;51.052;13.678;2023-07-20T12:03:04;5.10;;;4.60;;
3849;SDS011;1940;51.052;13.678;2023-07-20T12:05:31;5.20;;;4.60;;
3849;SDS011;1940;51.052;13.678;2023-07-20T12:07:57;5.53;;;5.03;;
3849;SDS011;1940;51.052;13.678;2023-07-20T12:10:23;6.40;;;5.70;;
3849;SDS011;1940;51.052;13.678;2023-07-20T12:13:02;7.70;;;5.37;;
3849;SDS011;1940;51.052;13.678;2023-07-20T12:15:28;7.63;;;6.03;;
3849;SDS011;1940;51.052;13.678;2023-07-20T12:17:57;7.30;;;6.60;;
3849;SDS011;1940;51.052;13.678;2023-07-20T12:20:34;9.93;;;6.17;;
3849;SDS011;1940;51.052;13.678;2023-07-20T12:23:11;9.40;;;6.90;;
3849;SDS011;1940;51.052;13.678;2023-07-20T12:25:38;8.00;;;7.10;;
3849;SDS011;1940;51.052;13.678;2023-07-20T12:28:06;14.03;;;6.93;;
3849;SDS011;1940;51.052;13.678;2023-07-20T12:30:39;10.60;;;7.63;;
3849;SDS011;1940;51.052;13.678;2023-07-20T12:33:06;8.60;;;7.67;;
3849;SDS011;1940;51.052;13.678;2023-07-20T12:35:31;14.43;;;9.60;;
3849;SDS011;1940;51.052;13.678;2023-07-20T12:37:57;12.17;;;9.97;;
3849;SDS011;1940;51.052;13.678;2023-07-20T12:40:23;12.50;;;9.97;;
3849;SDS011;1940;51.052;13.678;2023-07-20T12:42:49;11.93;;;9.93;;
3849;SDS011;1940;51.052;13.678;2023-07-20T12:45:15;11.10;;;8.30;;
3849;SDS011;1940;51.052;13.678;2023-07-20T12:47:41;8.17;;;6.00;;
3849;SDS011;1940;51.052;13.678;2023-07-20T12:50:08;11.17;;;5.93;;
3849;SDS011;1940;51.052;13.678;2023-07-20T12:52:37;7.77;;;5.53;;
3849;SDS011;1940;51.052;13.678;2023-07-20T12:55:06;8.47;;;6.20;;
3849;SDS011;1940;51.052;13.678;2023-07-20T12:57:36;7.40;;;5.93;;
3849;SDS011;1940;51.052;13.678;2023-07-20T13:00:03;8.00;;;6.20;;
3849;SDS011;1940;51.052;13.678;2023-07-20T13:02:30;9.03;;;6.60;;
3849;SDS011;1940;51.052;13.678;2023-07-20T13:04:57;7.37;;;6.17;;
3849;SDS011;1940;51.052;13.678;2023-07-20T13:07:29;5.90;;;5.30;;
3849;SDS011;1940;51.052;13.678;2023-07-20T13:09:56;6.63;;;5.53;;
3849;SDS011;1940;51.052;13.678;2023-07-20T13:12:24;5.67;;;4.10;;
3849;SDS011;1940;51.052;13.678;2023-07-20T13:14:49;4.00;;;3.60;;
3849;SDS011;1940;51.052;13.678;2023-07-20T13:17:15;4.70;;;3.67;;
3849;SDS011;1940;51.052;13.678;2023-07-20T13:19:40;4.80;;;3.17;;
3849;SDS011;1940;51.052;13.678;2023-07-20T13:22:06;3.90;;;3.50;;
3849;SDS011;1940;51.052;13.678;2023-07-20T13:24:31;4.20;;;3.60;;
3849;SDS011;1940;51.052;13.678;2023-07-20T13:26:57;4.50;;;3.20;;
3849;SDS011;1940;51.052;13.678;2023-07-20T13:29:23;3.63;;;3.10;;
3849;SDS011;1940;51.052;13.678;2023-07-20T13:31:50;4.50;;;2.80;;
3849;SDS011;1940;51.052;13.678;2023-07-20T13:34:15;7.23;;;3.00;;
3849;SDS011;1940;51.052;13.678;2023-07-20T13:36:41;3.50;;;3.10;;
3849;SDS011;1940;51.052;13.678;2023-07-20T13:39:06;3.33;;;2.57;;
3849;SDS011;1940;51.052;13.678;2023-07-20T13:41:33;4.77;;;2.70;;
3849;SDS011;1940;51.052;13.678;2023-07-20T13:43:59;3.43;;;2.90;;
3849;SDS011;1940;51.052;13.678;2023-07-20T13:46:24;3.60;;;3.03;;
3849;SDS011;1940;51.052;13.678;2023-07-20T13:48:50;7.20;;;2.70;;
3849;SDS011;1940;51.052;13.678;2023-07-20T13:51:16;2.40;;;2.20;;
3849;SDS011;1940;51.052;13.678;2023-07-20T13:53:42;2.90;;;2.20;;
3849;SDS011;1940;51.052;13.678;2023-07-20T13:56:10;2.80;;;2.40;;
3849;SDS011;1940;51.052;13.678;2023-07-20T13:58:35;2.10;;;1.90;;
3849;SDS011;1940;51.052;13.678;2023-07-20T14:01:01;4.00;;;2.17;;
3849;SDS011;1940;51.052;13.678;2023-07-20T14:03:27;3.37;;;2.20;;
3849;SDS011;1940;51.052;13.678;2023-07-20T14:05:52;2.83;;;2.03;;
3849;SDS011;1940;51.052;13.678;2023-07-20T14:08:18;2.07;;;1.83;;
3849;SDS011;1940;51.052;13.678;2023-07-20T14:10:43;2.63;;;2.03;;
3849;SDS011;1940;51.052;13.678;2023-07-20T14:13:09;2.97;;;2.37;;
3849;SDS011;1940;51.052;13.678;2023-07-20T14:15:34;2.23;;;2.00;;
3849;SDS011;1940;51.052;13.678;2023-07-20T14:18:00;6.30;;;2.53;;
3849;SDS011;1940;51.052;13.678;2023-07-20T14:20:25;3.30;;;2.20;;
3849;SDS011;1940;51.052;13.678;2023-07-20T14:22:51;4.23;;;2.23;;
3849;SDS011;1940;51.052;13.678;2023-07-20T14:25:16;2.80;;;2.10;;
3849;SDS011;1940;51.052;13.678;2023-07-20T14:27:42;2.40;;;2.20;;
3849;SDS011;1940;51.052;13.678;2023-07-20T14:30:08;3.30;;;2.80;;
3849;SDS011;1940;51.052;13.678;2023-07-20T14:32:34;3.73;;;2.53;;
3849;SDS011;1940;51.052;13.678;2023-07-20T14:34:59;2.47;;;2.27;;
3849;SDS011;1940;51.052;13.678;2023-07-20T14:37:25;3.13;;;2.10;;
3849;SDS011;1940;51.052;13.678;2023-07-20T14:39:50;3.83;;;2.50;;
3849;SDS011;1940;51.052;13.678;2023-07-20T14:42:16;4.90;;;3.40;;
3849;SDS011;1940;51.052;13.678;2023-07-20T14:44:42;3.77;;;2.80;;
3849;SDS011;1940;51.052;13.678;2023-07-20T14:47:08;2.90;;;2.60;;
3849;SDS011;1940;51.052;13.678;2023-07-20T14:49:33;3.00;;;2.70;;
3849;SDS011;1940;51.052;13.678;2023-07-20T14:51:59;3.30;;;2.73;;
3849;SDS011;1940;51.052;13.678;2023-07-20T14:54:25;4.80;;;2.67;;
3849;SDS011;1940;51.052;13.678;2023-07-20T14:56:51;2.90;;;2.60;;
3849;SDS011;1940;51.052;13.678;2023-07-20T14:59:17;3.60;;;2.50;;
3849;SDS011;1940;51.052;13.678;2023-07-20T15:01:43;3.40;;;2.87;;
3849;SDS011;1940;51.052;13.678;2023-07-20T15:04:12;3.00;;;2.40;;
3849;SDS011;1940;51.052;13.678;2023-07-20T15:06:39;5.83;;;2.50;;
3849;SDS011;1940;51.052;13.678;2023-07-20T15:09:05;4.80;;;2.70;;
3849;SDS011;1940;51.052;13.678;2023-07-20T15:11:30;2.63;;;2.43;;